sensor_id;sensor_type;location;lat;lon;timestamp;P1;durP1;ratioP1;P2;durP2;ratioP2
49972;SDS011;65693;49.798;10.968;2023-04-23T00:00:39;4.32;;;3.40;;
49972;SDS011;65693;49.798;10.968;2023-04-23T00:03:06;4.30;;;3.20;;
49972;SDS011;65693;49.798;10.968;2023-04-23T00:05:35;4.55;;;3.05;;
49972;SDS011;65693;49.798;10.968;2023-04-23T00:08:02;5.50;;;3.47;;
49972;SDS011;65693;49.798;10.968;2023-04-23T00:10:30;4.75;;;3.50;;
49972;SDS011;65693;49.798;10.968;2023-04-23T00:12:57;4.15;;;3.13;;
49972;SDS011;65693;49.798;10.968;2023-04-23T00:15:24;3.97;;;3.28;;
49972;SDS011;65693;49.798;10.968;2023-04-23T00:17:51;4.53;;;3.80;;
49972;SDS011;65693;49.798;10.968;2023-04-23T00:20:18;4.05;;;3.20;;
49972;SDS011;65693;49.798;10.968;2023-04-23T00:22:45;4.75;;;3.17;;
49972;SDS011;65693;49.798;10.968;2023-04-23T00:25:11;4.38;;;3.38;;
49972;SDS011;65693;49.798;10.968;2023-04-23T00:27:39;4.40;;;3.50;;
49972;SDS011;65693;49.798;10.968;2023-04-23T00:30:05;4.38;;;3.40;;
49972;SDS011;65693;49.798;10.968;2023-04-23T00:32:33;4.82;;;3.60;;
49972;SDS011;65693;49.798;10.968;2023-04-23T00:34:59;3.92;;;3.40;;
49972;SDS011;65693;49.798;10.968;2023-04-23T00:37:26;4.43;;;3.40;;
49972;SDS011;65693;49.798;10.968;2023-04-23T00:39:52;4.28;;;3.30;;
49972;SDS011;65693;49.798;10.968;2023-04-23T00:42:18;4.38;;;3.50;;
49972;SDS011;65693;49.798;10.968;2023-04-23T00:44:46;4.72;;;3.63;;
49972;SDS011;65693;49.798;10.968;2023-04-23T00:47:15;4.20;;;3.60;;
49972;SDS011;65693;49.798;10.968;2023-04-23T00:49:44;4.60;;;3.53;;
49972;SDS011;65693;49.798;10.968;2023-04-23T00:52:11;4.88;;;3.58;;
49972;SDS011;65693;49.798;10.968;2023-04-23T00:54:37;4.95;;;3.70;;
49972;SDS011;65693;49.798;10.968;2023-04-23T00:57:04;4.57;;;3.50;;
49972;SDS011;65693;49.798;10.968;2023-04-23T00:59:32;3.88;;;3.05;;
49972;SDS011;65693;49.798;10.968;2023-04-23T01:02:00;4.28;;;3.47;;
49972;SDS011;65693;49.798;10.968;2023-04-23T01:04:26;4.97;;;3.40;;
49972;SDS011;65693;49.798;10.968;2023-04-23T01:06:55;4.03;;;3.30;;
49972;SDS011;65693;49.798;10.968;2023-04-23T01:09:22;4.63;;;3.78;;
49972;SDS011;65693;49.798;10.968;2023-04-23T01:11:49;4.63;;;3.25;;
49972;SDS011;65693;49.798;10.968;2023-04-23T01:14:16;4.60;;;3.65;;
49972;SDS011;65693;49.798;10.968;2023-04-23T01:16:42;4.40;;;3.55;;
49972;SDS011;65693;49.798;10.968;2023-04-23T01:19:11;4.43;;;3.30;;
49972;SDS011;65693;49.798;10.968;2023-04-23T01:21:40;4.60;;;3.38;;
49972;SDS011;65693;49.798;10.968;2023-04-23T01:24:08;3.90;;;3.05;;
49972;SDS011;65693;49.798;10.968;2023-04-23T01:26:35;4.25;;;3.20;;
49972;SDS011;65693;49.798;10.968;2023-04-23T01:29:02;4.72;;;3.65;;
49972;SDS011;65693;49.798;10.968;2023-04-23T01:31:29;4.35;;;3.45;;
49972;SDS011;65693;49.798;10.968;2023-04-23T01:33:55;4.30;;;3.40;;
49972;SDS011;65693;49.798;10.968;2023-04-23T01:36:23;4.60;;;3.45;;
49972;SDS011;65693;49.798;10.968;2023-04-23T01:38:51;4.15;;;3.45;;
49972;SDS011;65693;49.798;10.968;2023-04-23T01:41:19;4.18;;;3.40;;
49972;SDS011;65693;49.798;10.968;2023-04-23T01:43:45;4.70;;;3.58;;
49972;SDS011;65693;49.798;10.968;2023-04-23T01:46:12;4.07;;;3.17;;
49972;SDS011;65693;49.798;10.968;2023-04-23T01:48:39;4.32;;;3.42;;
49972;SDS011;65693;49.798;10.968;2023-04-23T01:51:05;4.20;;;3.08;;
49972;SDS011;65693;49.798;10.968;2023-04-23T01:53:32;4.65;;;3.45;;
49972;SDS011;65693;49.798;10.968;2023-04-23T01:55:59;4.28;;;3.20;;
49972;SDS011;65693;49.798;10.968;2023-04-23T01:58:27;4.25;;;3.60;;
49972;SDS011;65693;49.798;10.968;2023-04-23T02:00:54;3.67;;;3.10;;
49972;SDS011;65693;49.798;10.968;2023-04-23T02:03:20;4.30;;;3.40;;
49972;SDS011;65693;49.798;10.968;2023-04-23T02:05:47;3.78;;;3.08;;
49972;SDS011;65693;49.798;10.968;2023-04-23T02:08:15;4.07;;;3.45;;
49972;SDS011;65693;49.798;10.968;2023-04-23T02:10:42;4.32;;;3.50;;
49972;SDS011;65693;49.798;10.968;2023-04-23T02:13:08;4.68;;;3.47;;
49972;SDS011;65693;49.798;10.968;2023-04-23T02:15:36;4.30;;;3.33;;
49972;SDS011;65693;49.798;10.968;2023-04-23T02:18:03;4.20;;;3.40;;
49972;SDS011;65693;49.798;10.968;2023-04-23T02:20:30;4.43;;;3.22;;
49972;SDS011;65693;49.798;10.968;2023-04-23T02:22:56;4.22;;;3.15;;
49972;SDS011;65693;49.798;10.968;2023-04-23T02:25:23;5.53;;;3.30;;
49972;SDS011;65693;49.798;10.968;2023-04-23T02:27:49;4.00;;;3.30;;
49972;SDS011;65693;49.798;10.968;2023-04-23T02:30:16;4.70;;;3.35;;
49972;SDS011;65693;49.798;10.968;2023-04-23T02:32:43;4.82;;;3.60;;
49972;SDS011;65693;49.798;10.968;2023-04-23T02:35:10;4.47;;;3.40;;
49972;SDS011;65693;49.798;10.968;2023-04-23T02:37:37;4.25;;;3.38;;
49972;SDS011;65693;49.798;10.968;2023-04-23T02:40:04;4.80;;;3.40;;
49972;SDS011;65693;49.798;10.968;2023-04-23T02:42:32;4.07;;;3.13;;
49972;SDS011;65693;49.798;10.968;2023-04-23T02:44:58;4.40;;;3.50;;
49972;SDS011;65693;49.798;10.968;2023-04-23T02:47:24;4.43;;;3.58;;
49972;SDS011;65693;49.798;10.968;2023-04-23T02:49:52;5.10;;;3.58;;
49972;SDS011;65693;49.798;10.968;2023-04-23T02:52:19;4.10;;;3.38;;
49972;SDS011;65693;49.798;10.968;2023-04-23T02:54:45;3.50;;;3.03;;
49972;SDS011;65693;49.798;10.968;2023-04-23T02:57:12;4.50;;;3.50;;
49972;SDS011;65693;49.798;10.968;2023-04-23T02:59:40;4.35;;;3.60;;
49972;SDS011;65693;49.798;10.968;2023-04-23T03:02:06;3.85;;;3.33;;
49972;SDS011;65693;49.798;10.968;2023-04-23T03:04:33;4.28;;;3.25;;
49972;SDS011;65693;49.798;10.968;2023-04-23T03:07:01;4.63;;;3.53;;
49972;SDS011;65693;49.798;10.968;2023-04-23T03:09:27;3.60;;;3.08;;
49972;SDS011;65693;49.798;10.968;2023-04-23T03:11:54;4.07;;;3.30;;
49972;SDS011;65693;49.798;10.968;2023-04-23T03:14:21;4.00;;;3.40;;
49972;SDS011;65693;49.798;10.968;2023-04-23T03:16:47;4.43;;;3.53;;
49972;SDS011;65693;49.798;10.968;2023-04-23T03:19:14;4.43;;;3.28;;
49972;SDS011;65693;49.798;10.968;2023-04-23T03:21:40;5.13;;;3.88;;
49972;SDS011;65693;49.798;10.968;2023-04-23T03:24:09;4.55;;;3.40;;
49972;SDS011;65693;49.798;10.968;2023-04-23T03:26:35;4.50;;;3.53;;
49972;SDS011;65693;49.798;10.968;2023-04-23T03:29:02;4.00;;;3.17;;
49972;SDS011;65693;49.798;10.968;2023-04-23T03:31:30;4.43;;;3.40;;
49972;SDS011;65693;49.798;10.968;2023-04-23T03:33:56;4.50;;;3.35;;
49972;SDS011;65693;49.798;10.968;2023-04-23T03:36:23;4.75;;;3.60;;
49972;SDS011;65693;49.798;10.968;2023-04-23T03:38:49;4.50;;;3.33;;
49972;SDS011;65693;49.798;10.968;2023-04-23T03:41:18;4.22;;;3.13;;
49972;SDS011;65693;49.798;10.968;2023-04-23T03:43:44;4.85;;;3.45;;
49972;SDS011;65693;49.798;10.968;2023-04-23T03:46:10;4.22;;;3.20;;
49972;SDS011;65693;49.798;10.968;2023-04-23T03:48:37;4.40;;;3.42;;
49972;SDS011;65693;49.798;10.968;2023-04-23T03:51:03;4.90;;;3.80;;
49972;SDS011;65693;49.798;10.968;2023-04-23T03:53:30;4.53;;;3.33;;
49972;SDS011;65693;49.798;10.968;2023-04-23T03:55:56;4.32;;;3.50;;
49972;SDS011;65693;49.798;10.968;2023-04-23T03:58:24;4.78;;;3.50;;
49972;SDS011;65693;49.798;10.968;2023-04-23T04:00:50;4.07;;;3.28;;
49972;SDS011;65693;49.798;10.968;2023-04-23T04:03:17;4.00;;;3.47;;
49972;SDS011;65693;49.798;10.968;2023-04-23T04:05:43;4.20;;;3.17;;
49972;SDS011;65693;49.798;10.968;2023-04-23T04:08:10;4.55;;;3.60;;
49972;SDS011;65693;49.798;10.968;2023-04-23T04:10:36;3.97;;;2.97;;
49972;SDS011;65693;49.798;10.968;2023-04-23T04:13:02;4.60;;;3.13;;
49972;SDS011;65693;49.798;10.968;2023-04-23T04:15:30;4.00;;;3.10;;
49972;SDS011;65693;49.798;10.968;2023-04-23T04:17:57;4.68;;;3.60;;
49972;SDS011;65693;49.798;10.968;2023-04-23T04:20:25;4.00;;;3.40;;
49972;SDS011;65693;49.798;10.968;2023-04-23T04:22:53;4.30;;;3.30;;
49972;SDS011;65693;49.798;10.968;2023-04-23T04:25:19;4.65;;;3.33;;
49972;SDS011;65693;49.798;10.968;2023-04-23T04:27:48;4.10;;;3.20;;
49972;SDS011;65693;49.798;10.968;2023-04-23T04:30:14;3.80;;;3.30;;
49972;SDS011;65693;49.798;10.968;2023-04-23T04:32:42;4.43;;;3.30;;
49972;SDS011;65693;49.798;10.968;2023-04-23T04:35:10;4.40;;;3.65;;
49972;SDS011;65693;49.798;10.968;2023-04-23T04:37:38;4.28;;;3.17;;
49972;SDS011;65693;49.798;10.968;2023-04-23T04:40:06;4.75;;;3.55;;
49972;SDS011;65693;49.798;10.968;2023-04-23T04:42:35;4.57;;;3.67;;
49972;SDS011;65693;49.798;10.968;2023-04-23T04:45:03;4.85;;;3.63;;
49972;SDS011;65693;49.798;10.968;2023-04-23T04:47:30;4.57;;;3.70;;
49972;SDS011;65693;49.798;10.968;2023-04-23T04:49:58;5.32;;;3.30;;
49972;SDS011;65693;49.798;10.968;2023-04-23T04:52:24;3.55;;;2.90;;
49972;SDS011;65693;49.798;10.968;2023-04-23T04:54:51;3.75;;;3.00;;
49972;SDS011;65693;49.798;10.968;2023-04-23T04:57:17;5.13;;;3.60;;
49972;SDS011;65693;49.798;10.968;2023-04-23T04:59:46;5.07;;;3.75;;
49972;SDS011;65693;49.798;10.968;2023-04-23T05:02:13;4.68;;;3.20;;
49972;SDS011;65693;49.798;10.968;2023-04-23T05:04:40;4.03;;;3.38;;
49972;SDS011;65693;49.798;10.968;2023-04-23T05:07:07;3.75;;;3.30;;
49972;SDS011;65693;49.798;10.968;2023-04-23T05:09:35;4.78;;;3.40;;
49972;SDS011;65693;49.798;10.968;2023-04-23T05:12:01;3.95;;;3.03;;
49972;SDS011;65693;49.798;10.968;2023-04-23T05:14:27;4.60;;;3.55;;
49972;SDS011;65693;49.798;10.968;2023-04-23T05:16:54;4.38;;;3.10;;
49972;SDS011;65693;49.798;10.968;2023-04-23T05:19:20;4.20;;;3.30;;
49972;SDS011;65693;49.798;10.968;2023-04-23T05:21:47;4.50;;;3.15;;
49972;SDS011;65693;49.798;10.968;2023-04-23T05:24:15;4.80;;;3.40;;
49972;SDS011;65693;49.798;10.968;2023-04-23T05:26:41;4.10;;;3.25;;
49972;SDS011;65693;49.798;10.968;2023-04-23T05:29:08;4.15;;;3.33;;
49972;SDS011;65693;49.798;10.968;2023-04-23T05:31:34;4.97;;;3.55;;
49972;SDS011;65693;49.798;10.968;2023-04-23T05:34:00;4.53;;;3.42;;
49972;SDS011;65693;49.798;10.968;2023-04-23T05:36:27;4.28;;;3.20;;
49972;SDS011;65693;49.798;10.968;2023-04-23T05:38:53;4.13;;;3.33;;
49972;SDS011;65693;49.798;10.968;2023-04-23T05:41:21;3.85;;;3.17;;
49972;SDS011;65693;49.798;10.968;2023-04-23T05:43:47;4.75;;;3.50;;
49972;SDS011;65693;49.798;10.968;2023-04-23T05:46:14;4.40;;;3.28;;
49972;SDS011;65693;49.798;10.968;2023-04-23T05:48:40;4.38;;;3.60;;
49972;SDS011;65693;49.798;10.968;2023-04-23T05:51:07;4.68;;;3.40;;
49972;SDS011;65693;49.798;10.968;2023-04-23T05:53:33;5.85;;;3.47;;
49972;SDS011;65693;49.798;10.968;2023-04-23T05:56:00;4.93;;;3.42;;
49972;SDS011;65693;49.798;10.968;2023-04-23T05:58:27;5.32;;;3.78;;
49972;SDS011;65693;49.798;10.968;2023-04-23T06:00:54;4.70;;;3.50;;
49972;SDS011;65693;49.798;10.968;2023-04-23T06:03:21;5.43;;;3.33;;
49972;SDS011;65693;49.798;10.968;2023-04-23T06:05:48;4.10;;;3.17;;
49972;SDS011;65693;49.798;10.968;2023-04-23T06:08:14;4.80;;;3.47;;
49972;SDS011;65693;49.798;10.968;2023-04-23T06:10:40;5.95;;;4.05;;
49972;SDS011;65693;49.798;10.968;2023-04-23T06:13:07;3.88;;;2.95;;
49972;SDS011;65693;49.798;10.968;2023-04-23T06:15:36;4.18;;;3.28;;
49972;SDS011;65693;49.798;10.968;2023-04-23T06:18:02;5.78;;;3.85;;
49972;SDS011;65693;49.798;10.968;2023-04-23T06:20:29;4.22;;;3.28;;
49972;SDS011;65693;49.798;10.968;2023-04-23T06:22:56;4.32;;;3.65;;
49972;SDS011;65693;49.798;10.968;2023-04-23T06:25:22;4.88;;;3.40;;
49972;SDS011;65693;49.798;10.968;2023-04-23T06:27:49;4.80;;;3.15;;
49972;SDS011;65693;49.798;10.968;2023-04-23T06:30:16;4.97;;;3.50;;
49972;SDS011;65693;49.798;10.968;2023-04-23T06:32:43;4.45;;;3.38;;
49972;SDS011;65693;49.798;10.968;2023-04-23T06:35:10;4.30;;;3.42;;
49972;SDS011;65693;49.798;10.968;2023-04-23T06:37:37;6.35;;;3.63;;
49972;SDS011;65693;49.798;10.968;2023-04-23T06:40:03;4.32;;;3.55;;
49972;SDS011;65693;49.798;10.968;2023-04-23T06:42:31;4.25;;;3.20;;
49972;SDS011;65693;49.798;10.968;2023-04-23T06:44:57;4.60;;;3.30;;
49972;SDS011;65693;49.798;10.968;2023-04-23T06:47:28;4.75;;;3.88;;
49972;SDS011;65693;49.798;10.968;2023-04-23T06:49:56;4.32;;;3.10;;
49972;SDS011;65693;49.798;10.968;2023-04-23T06:52:22;4.95;;;3.50;;
49972;SDS011;65693;49.798;10.968;2023-04-23T06:54:49;4.38;;;3.35;;
49972;SDS011;65693;49.798;10.968;2023-04-23T06:57:15;4.95;;;3.53;;
49972;SDS011;65693;49.798;10.968;2023-04-23T06:59:41;4.30;;;3.45;;
49972;SDS011;65693;49.798;10.968;2023-04-23T07:02:08;4.32;;;3.45;;
49972;SDS011;65693;49.798;10.968;2023-04-23T07:04:34;4.63;;;3.08;;
49972;SDS011;65693;49.798;10.968;2023-04-23T07:07:02;4.25;;;3.15;;
49972;SDS011;65693;49.798;10.968;2023-04-23T07:09:28;4.13;;;3.47;;
49972;SDS011;65693;49.798;10.968;2023-04-23T07:11:55;4.65;;;3.35;;
49972;SDS011;65693;49.798;10.968;2023-04-23T07:14:22;6.82;;;3.33;;
49972;SDS011;65693;49.798;10.968;2023-04-23T07:16:48;4.57;;;3.55;;
49972;SDS011;65693;49.798;10.968;2023-04-23T07:19:15;3.97;;;3.10;;
49972;SDS011;65693;49.798;10.968;2023-04-23T07:21:42;4.38;;;3.28;;
49972;SDS011;65693;49.798;10.968;2023-04-23T07:24:09;3.92;;;3.25;;
49972;SDS011;65693;49.798;10.968;2023-04-23T07:26:36;4.82;;;3.42;;
49972;SDS011;65693;49.798;10.968;2023-04-23T07:29:03;4.53;;;3.40;;
49972;SDS011;65693;49.798;10.968;2023-04-23T07:31:31;5.43;;;3.60;;
49972;SDS011;65693;49.798;10.968;2023-04-23T07:33:58;3.88;;;3.05;;
49972;SDS011;65693;49.798;10.968;2023-04-23T07:36:25;4.75;;;3.33;;
49972;SDS011;65693;49.798;10.968;2023-04-23T07:38:51;4.35;;;3.40;;
49972;SDS011;65693;49.798;10.968;2023-04-23T07:41:19;4.82;;;3.40;;
49972;SDS011;65693;49.798;10.968;2023-04-23T07:43:45;4.38;;;3.10;;
49972;SDS011;65693;49.798;10.968;2023-04-23T07:46:12;3.58;;;2.75;;
49972;SDS011;65693;49.798;10.968;2023-04-23T07:48:38;4.13;;;3.30;;
49972;SDS011;65693;49.798;10.968;2023-04-23T07:51:07;4.68;;;3.30;;
49972;SDS011;65693;49.798;10.968;2023-04-23T07:53:34;4.82;;;3.08;;
49972;SDS011;65693;49.798;10.968;2023-04-23T07:56:00;4.10;;;3.08;;
49972;SDS011;65693;49.798;10.968;2023-04-23T07:58:28;4.50;;;3.40;;
49972;SDS011;65693;49.798;10.968;2023-04-23T08:00:56;4.20;;;3.13;;
49972;SDS011;65693;49.798;10.968;2023-04-23T08:03:23;4.50;;;3.20;;
49972;SDS011;65693;49.798;10.968;2023-04-23T08:05:50;4.13;;;3.25;;
49972;SDS011;65693;49.798;10.968;2023-04-23T08:08:16;3.90;;;3.10;;
49972;SDS011;65693;49.798;10.968;2023-04-23T08:10:42;4.25;;;3.25;;
49972;SDS011;65693;49.798;10.968;2023-04-23T08:13:10;4.20;;;2.97;;
49972;SDS011;65693;49.798;10.968;2023-04-23T08:15:37;4.30;;;3.17;;
49972;SDS011;65693;49.798;10.968;2023-04-23T08:18:04;3.80;;;3.08;;
49972;SDS011;65693;49.798;10.968;2023-04-23T08:20:31;4.53;;;3.33;;
49972;SDS011;65693;49.798;10.968;2023-04-23T08:22:57;4.10;;;3.03;;
49972;SDS011;65693;49.798;10.968;2023-04-23T08:25:24;3.85;;;3.05;;
49972;SDS011;65693;49.798;10.968;2023-04-23T08:27:50;3.95;;;2.90;;
49972;SDS011;65693;49.798;10.968;2023-04-23T08:30:17;4.40;;;3.60;;
49972;SDS011;65693;49.798;10.968;2023-04-23T08:32:45;4.30;;;3.10;;
49972;SDS011;65693;49.798;10.968;2023-04-23T08:35:14;4.53;;;3.42;;
49972;SDS011;65693;49.798;10.968;2023-04-23T08:37:40;4.25;;;3.50;;
49972;SDS011;65693;49.798;10.968;2023-04-23T08:40:07;4.22;;;3.28;;
49972;SDS011;65693;49.798;10.968;2023-04-23T08:42:36;4.22;;;3.20;;
49972;SDS011;65693;49.798;10.968;2023-04-23T08:45:07;4.20;;;3.10;;
49972;SDS011;65693;49.798;10.968;2023-04-23T08:47:34;3.88;;;2.97;;
49972;SDS011;65693;49.798;10.968;2023-04-23T08:50:02;3.90;;;3.13;;
49972;SDS011;65693;49.798;10.968;2023-04-23T08:52:32;4.30;;;3.55;;
49972;SDS011;65693;49.798;10.968;2023-04-23T08:54:59;4.07;;;3.25;;
49972;SDS011;65693;49.798;10.968;2023-04-23T08:57:28;4.60;;;3.30;;
49972;SDS011;65693;49.798;10.968;2023-04-23T08:59:55;4.43;;;3.55;;
49972;SDS011;65693;49.798;10.968;2023-04-23T09:02:23;4.30;;;3.45;;
49972;SDS011;65693;49.798;10.968;2023-04-23T09:04:49;4.60;;;3.53;;
49972;SDS011;65693;49.798;10.968;2023-04-23T09:07:19;4.20;;;3.40;;
49972;SDS011;65693;49.798;10.968;2023-04-23T09:09:45;4.22;;;3.20;;
49972;SDS011;65693;49.798;10.968;2023-04-23T09:12:12;4.28;;;3.20;;
49972;SDS011;65693;49.798;10.968;2023-04-23T09:14:38;3.80;;;3.03;;
49972;SDS011;65693;49.798;10.968;2023-04-23T09:17:05;4.65;;;3.15;;
49972;SDS011;65693;49.798;10.968;2023-04-23T09:19:31;4.28;;;2.88;;
49972;SDS011;65693;49.798;10.968;2023-04-23T09:21:58;4.20;;;3.30;;
49972;SDS011;65693;49.798;10.968;2023-04-23T09:24:27;3.83;;;3.10;;
49972;SDS011;65693;49.798;10.968;2023-04-23T09:26:55;4.20;;;3.05;;
49972;SDS011;65693;49.798;10.968;2023-04-23T09:29:23;5.32;;;3.72;;
49972;SDS011;65693;49.798;10.968;2023-04-23T09:31:50;3.95;;;3.15;;
49972;SDS011;65693;49.798;10.968;2023-04-23T09:34:19;4.25;;;3.20;;
49972;SDS011;65693;49.798;10.968;2023-04-23T09:36:46;4.80;;;3.33;;
49972;SDS011;65693;49.798;10.968;2023-04-23T09:39:14;5.13;;;3.20;;
49972;SDS011;65693;49.798;10.968;2023-04-23T09:41:43;5.03;;;3.10;;
49972;SDS011;65693;49.798;10.968;2023-04-23T09:44:10;4.80;;;3.00;;
49972;SDS011;65693;49.798;10.968;2023-04-23T09:46:38;4.32;;;3.00;;
49972;SDS011;65693;49.798;10.968;2023-04-23T09:49:06;4.70;;;3.28;;
49972;SDS011;65693;49.798;10.968;2023-04-23T09:51:34;3.70;;;2.90;;
49972;SDS011;65693;49.798;10.968;2023-04-23T09:54:01;4.18;;;2.80;;
49972;SDS011;65693;49.798;10.968;2023-04-23T09:56:28;4.35;;;3.30;;
49972;SDS011;65693;49.798;10.968;2023-04-23T09:58:57;5.45;;;3.35;;
49972;SDS011;65693;49.798;10.968;2023-04-23T10:01:27;4.38;;;3.13;;
49972;SDS011;65693;49.798;10.968;2023-04-23T10:03:54;4.32;;;2.70;;
49972;SDS011;65693;49.798;10.968;2023-04-23T10:06:25;4.32;;;3.00;;
49972;SDS011;65693;49.798;10.968;2023-04-23T10:08:54;4.95;;;3.22;;
49972;SDS011;65693;49.798;10.968;2023-04-23T10:11:21;4.03;;;3.20;;
49972;SDS011;65693;49.798;10.968;2023-04-23T10:13:48;4.10;;;2.88;;
49972;SDS011;65693;49.798;10.968;2023-04-23T10:16:17;4.50;;;2.47;;
49972;SDS011;65693;49.798;10.968;2023-04-23T10:18:45;3.60;;;2.50;;
49972;SDS011;65693;49.798;10.968;2023-04-23T10:21:12;3.65;;;2.67;;
49972;SDS011;65693;49.798;10.968;2023-04-23T10:23:41;3.50;;;2.53;;
49972;SDS011;65693;49.798;10.968;2023-04-23T10:26:09;3.58;;;2.83;;
49972;SDS011;65693;49.798;10.968;2023-04-23T10:28:39;3.92;;;3.10;;
49972;SDS011;65693;49.798;10.968;2023-04-23T10:31:11;3.42;;;2.75;;
49972;SDS011;65693;49.798;10.968;2023-04-23T10:33:39;3.63;;;2.70;;
49972;SDS011;65693;49.798;10.968;2023-04-23T10:36:07;4.03;;;2.50;;
49972;SDS011;65693;49.798;10.968;2023-04-23T10:38:34;3.95;;;2.85;;
49972;SDS011;65693;49.798;10.968;2023-04-23T10:41:01;3.35;;;2.78;;
49972;SDS011;65693;49.798;10.968;2023-04-23T10:43:29;4.00;;;2.58;;
49972;SDS011;65693;49.798;10.968;2023-04-23T10:45:55;5.20;;;2.65;;
49972;SDS011;65693;49.798;10.968;2023-04-23T10:48:21;3.70;;;2.83;;
49972;SDS011;65693;49.798;10.968;2023-04-23T10:50:49;3.97;;;2.80;;
49972;SDS011;65693;49.798;10.968;2023-04-23T10:53:22;3.08;;;2.08;;
49972;SDS011;65693;49.798;10.968;2023-04-23T10:55:49;3.03;;;2.20;;
49972;SDS011;65693;49.798;10.968;2023-04-23T10:58:16;3.95;;;2.10;;
49972;SDS011;65693;49.798;10.968;2023-04-23T11:00:43;4.38;;;1.95;;
49972;SDS011;65693;49.798;10.968;2023-04-23T11:03:26;2.65;;;2.10;;
49972;SDS011;65693;49.798;10.968;2023-04-23T11:05:56;3.33;;;2.15;;
49972;SDS011;65693;49.798;10.968;2023-04-23T11:08:23;3.92;;;2.13;;
49972;SDS011;65693;49.798;10.968;2023-04-23T11:10:50;2.72;;;2.03;;
49972;SDS011;65693;49.798;10.968;2023-04-23T11:13:21;3.70;;;1.90;;
49972;SDS011;65693;49.798;10.968;2023-04-23T11:24:22;3.17;;;1.92;;
49972;SDS011;65693;49.798;10.968;2023-04-23T11:26:49;3.60;;;1.85;;
49972;SDS011;65693;49.798;10.968;2023-04-23T11:29:17;3.17;;;1.80;;
49972;SDS011;65693;49.798;10.968;2023-04-23T11:31:46;5.60;;;1.85;;
49972;SDS011;65693;49.798;10.968;2023-04-23T11:34:13;5.13;;;2.08;;
49972;SDS011;65693;49.798;10.968;2023-04-23T11:36:39;3.92;;;1.88;;
49972;SDS011;65693;49.798;10.968;2023-04-23T11:39:07;3.70;;;1.50;;
49972;SDS011;65693;49.798;10.968;2023-04-23T11:41:34;3.78;;;1.70;;
49972;SDS011;65693;49.798;10.968;2023-04-23T11:44:02;2.95;;;1.40;;
49972;SDS011;65693;49.798;10.968;2023-04-23T11:46:28;2.88;;;1.55;;
49972;SDS011;65693;49.798;10.968;2023-04-23T11:48:55;2.97;;;1.38;;
49972;SDS011;65693;49.798;10.968;2023-04-23T11:51:23;5.40;;;1.70;;
49972;SDS011;65693;49.798;10.968;2023-04-23T11:53:50;2.72;;;1.70;;
49972;SDS011;65693;49.798;10.968;2023-04-23T11:56:18;2.60;;;1.67;;
49972;SDS011;65693;49.798;10.968;2023-04-23T11:58:45;3.35;;;1.63;;
49972;SDS011;65693;49.798;10.968;2023-04-23T12:01:11;2.17;;;1.70;;
49972;SDS011;65693;49.798;10.968;2023-04-23T12:03:38;2.97;;;1.60;;
49972;SDS011;65693;49.798;10.968;2023-04-23T12:06:04;3.60;;;1.77;;
49972;SDS011;65693;49.798;10.968;2023-04-23T12:08:32;2.15;;;1.55;;
49972;SDS011;65693;49.798;10.968;2023-04-23T12:11:00;3.28;;;1.77;;
49972;SDS011;65693;49.798;10.968;2023-04-23T12:13:29;2.33;;;1.60;;
49972;SDS011;65693;49.798;10.968;2023-04-23T12:15:57;4.00;;;1.90;;
49972;SDS011;65693;49.798;10.968;2023-04-23T12:18:28;2.33;;;1.70;;
49972;SDS011;65693;49.798;10.968;2023-04-23T12:21:03;4.10;;;1.80;;
49972;SDS011;65693;49.798;10.968;2023-04-23T12:23:30;4.88;;;1.88;;
49972;SDS011;65693;49.798;10.968;2023-04-23T12:25:57;7.45;;;2.05;;
49972;SDS011;65693;49.798;10.968;2023-04-23T12:28:24;4.55;;;2.08;;
49972;SDS011;65693;49.798;10.968;2023-04-23T12:30:52;4.18;;;1.70;;
49972;SDS011;65693;49.798;10.968;2023-04-23T12:33:19;2.97;;;1.80;;
49972;SDS011;65693;49.798;10.968;2023-04-23T12:35:48;4.93;;;1.92;;
49972;SDS011;65693;49.798;10.968;2023-04-23T12:38:22;2.30;;;1.70;;
49972;SDS011;65693;49.798;10.968;2023-04-23T12:40:50;4.85;;;1.98;;
49972;SDS011;65693;49.798;10.968;2023-04-23T12:43:17;5.53;;;1.60;;
49972;SDS011;65693;49.798;10.968;2023-04-23T12:45:44;5.65;;;1.90;;
49972;SDS011;65693;49.798;10.968;2023-04-23T12:48:12;3.95;;;1.90;;
49972;SDS011;65693;49.798;10.968;2023-04-23T12:50:39;3.83;;;1.83;;
49972;SDS011;65693;49.798;10.968;2023-04-23T12:53:06;2.65;;;1.65;;
49972;SDS011;65693;49.798;10.968;2023-04-23T12:55:32;3.78;;;1.77;;
49972;SDS011;65693;49.798;10.968;2023-04-23T12:57:59;2.67;;;1.70;;
49972;SDS011;65693;49.798;10.968;2023-04-23T13:00:25;4.15;;;1.60;;
49972;SDS011;65693;49.798;10.968;2023-04-23T13:02:53;3.70;;;1.58;;
49972;SDS011;65693;49.798;10.968;2023-04-23T13:05:21;2.40;;;1.70;;
49972;SDS011;65693;49.798;10.968;2023-04-23T13:07:48;2.75;;;1.60;;
49972;SDS011;65693;49.798;10.968;2023-04-23T13:10:14;4.30;;;1.60;;
49972;SDS011;65693;49.798;10.968;2023-04-23T13:12:41;2.20;;;1.60;;
49972;SDS011;65693;49.798;10.968;2023-04-23T13:15:08;3.25;;;1.48;;
49972;SDS011;65693;49.798;10.968;2023-04-23T13:17:36;2.35;;;1.50;;
49972;SDS011;65693;49.798;10.968;2023-04-23T13:20:03;1.85;;;1.65;;
49972;SDS011;65693;49.798;10.968;2023-04-23T13:22:32;2.13;;;1.40;;
49972;SDS011;65693;49.798;10.968;2023-04-23T13:24:58;2.65;;;1.50;;
49972;SDS011;65693;49.798;10.968;2023-04-23T13:27:26;2.50;;;1.40;;
49972;SDS011;65693;49.798;10.968;2023-04-23T13:29:54;1.55;;;1.17;;
49972;SDS011;65693;49.798;10.968;2023-04-23T13:32:20;1.95;;;1.40;;
49972;SDS011;65693;49.798;10.968;2023-04-23T13:34:48;3.38;;;1.83;;
49972;SDS011;65693;49.798;10.968;2023-04-23T13:37:14;2.80;;;1.50;;
49972;SDS011;65693;49.798;10.968;2023-04-23T13:39:42;3.08;;;1.58;;
49972;SDS011;65693;49.798;10.968;2023-04-23T13:42:08;2.58;;;1.50;;
49972;SDS011;65693;49.798;10.968;2023-04-23T13:44:35;2.40;;;1.58;;
49972;SDS011;65693;49.798;10.968;2023-04-23T13:47:01;3.30;;;1.40;;
49972;SDS011;65693;49.798;10.968;2023-04-23T13:49:28;1.77;;;1.20;;
49972;SDS011;65693;49.798;10.968;2023-04-23T13:51:54;2.55;;;1.35;;
49972;SDS011;65693;49.798;10.968;2023-04-23T13:54:24;4.25;;;1.50;;
49972;SDS011;65693;49.798;10.968;2023-04-23T13:56:53;2.75;;;1.38;;
49972;SDS011;65693;49.798;10.968;2023-04-23T13:59:20;3.47;;;1.30;;
49972;SDS011;65693;49.798;10.968;2023-04-23T14:01:46;1.88;;;1.45;;
49972;SDS011;65693;49.798;10.968;2023-04-23T14:04:13;2.42;;;1.40;;
49972;SDS011;65693;49.798;10.968;2023-04-23T14:06:40;2.83;;;1.42;;
49972;SDS011;65693;49.798;10.968;2023-04-23T14:09:07;1.95;;;1.20;;
49972;SDS011;65693;49.798;10.968;2023-04-23T14:11:34;1.67;;;1.27;;
49972;SDS011;65693;49.798;10.968;2023-04-23T14:14:02;1.42;;;1.13;;
49972;SDS011;65693;49.798;10.968;2023-04-23T14:16:29;2.67;;;1.33;;
49972;SDS011;65693;49.798;10.968;2023-04-23T14:18:55;1.73;;;1.30;;
49972;SDS011;65693;49.798;10.968;2023-04-23T14:21:22;2.10;;;1.33;;
49972;SDS011;65693;49.798;10.968;2023-04-23T14:23:49;2.63;;;1.30;;
49972;SDS011;65693;49.798;10.968;2023-04-23T14:26:21;2.10;;;1.40;;
49972;SDS011;65693;49.798;10.968;2023-04-23T14:28:54;2.47;;;1.40;;
49972;SDS011;65693;49.798;10.968;2023-04-23T14:31:23;1.65;;;1.30;;
49972;SDS011;65693;49.798;10.968;2023-04-23T14:33:50;1.30;;;1.20;;
49972;SDS011;65693;49.798;10.968;2023-04-23T14:36:17;1.88;;;1.38;;
49972;SDS011;65693;49.798;10.968;2023-04-23T14:38:44;1.45;;;1.10;;
49972;SDS011;65693;49.798;10.968;2023-04-23T14:41:10;2.33;;;1.20;;